createdAt,value
2018-04-19T00:02:18.371Z,30.00
2018-04-19T00:04:46.738Z,30.37
2018-04-19T00:07:15.094Z,46.17
2018-04-19T00:09:43.462Z,35.60
2018-04-19T00:12:11.816Z,31.87
2018-04-19T00:14:40.585Z,36.63
2018-04-19T00:17:08.943Z,41.17
2018-04-19T00:19:37.304Z,45.80
2018-04-19T00:22:05.682Z,31.97
2018-04-19T00:24:34.040Z,36.80
2018-04-19T00:27:02.450Z,38.43
2018-04-19T00:29:30.811Z,46.40
2018-04-19T00:31:59.214Z,41.23
2018-04-19T00:34:27.550Z,34.57
2018-04-19T00:36:55.915Z,36.33
2018-04-19T00:39:24.678Z,49.33
2018-04-19T00:41:53.043Z,38.70
2018-04-19T00:44:21.428Z,44.40
2018-04-19T00:46:49.789Z,31.03
2018-04-19T00:49:18.143Z,39.40
2018-04-19T00:51:46.514Z,57.57
2018-04-19T00:54:14.932Z,56.47
2018-04-19T00:56:43.279Z,39.37
2018-04-19T00:59:12.315Z,41.40
2018-04-19T01:01:40.689Z,37.47
2018-04-19T01:04:09.079Z,44.43
2018-04-19T01:06:37.438Z,39.77
2018-04-19T01:09:06.739Z,36.93
2018-04-19T01:11:35.127Z,34.97
2018-04-19T01:14:03.499Z,41.43
2018-04-19T01:16:31.878Z,36.00
2018-04-19T01:19:00.239Z,33.30
2018-04-19T01:21:28.619Z,35.60
2018-04-19T01:23:57.011Z,35.70
2018-04-19T01:26:25.370Z,47.80
2018-04-19T01:28:53.729Z,35.87
2018-04-19T01:31:22.146Z,38.00
2018-04-19T01:33:50.499Z,41.17
2018-04-19T01:36:25.572Z,39.10
2018-04-19T01:38:53.929Z,34.87
2018-04-19T01:41:22.310Z,33.43
2018-04-19T01:43:50.663Z,48.10
2018-04-19T01:46:19.022Z,39.43
2018-04-19T01:48:47.777Z,39.83
2018-04-19T01:51:16.151Z,40.97
2018-04-19T01:53:44.517Z,47.90
2018-04-19T01:56:12.902Z,36.30
2018-04-19T01:58:41.263Z,40.90
2018-04-19T02:01:09.629Z,36.67
2018-04-19T02:03:38.039Z,38.60
2018-04-19T02:06:06.394Z,45.43
2018-04-19T02:08:34.784Z,39.00
2018-04-19T02:11:03.144Z,43.03
2018-04-19T02:13:31.564Z,33.70
2018-04-19T02:15:59.940Z,30.77
2018-04-19T02:18:28.302Z,35.80
2018-04-19T02:20:56.703Z,39.53
2018-04-19T02:23:25.082Z,39.30
2018-04-19T02:25:53.451Z,42.47
2018-04-19T02:28:21.826Z,34.70
2018-04-19T02:30:50.194Z,39.60
2018-04-19T02:33:18.572Z,39.10
2018-04-19T02:35:47.011Z,43.87
2018-04-19T02:38:15.330Z,38.23
2018-04-19T02:40:43.723Z,42.53
2018-04-19T02:43:12.107Z,44.63
2018-04-19T02:45:40.476Z,31.07
2018-04-19T02:48:08.835Z,41.17
2018-04-19T02:50:37.258Z,44.93
2018-04-19T02:53:05.616Z,51.37
2018-04-19T02:55:33.998Z,47.67
2018-04-19T02:58:02.361Z,49.27
2018-04-19T03:00:30.743Z,33.23
2018-04-19T03:02:59.110Z,47.93
2018-04-19T03:05:27.502Z,52.53
2018-04-19T03:07:55.893Z,43.20
2018-04-19T03:10:24.250Z,40.63
2018-04-19T03:12:52.651Z,41.87
2018-04-19T03:15:21.018Z,50.40
2018-04-19T03:17:49.379Z,47.23
2018-04-19T03:20:17.782Z,50.57
2018-04-19T03:22:46.146Z,45.63
2018-04-19T03:25:15.251Z,54.80
2018-04-19T03:27:43.626Z,40.10
2018-04-19T03:30:11.983Z,41.60
2018-04-19T03:32:40.350Z,46.57
2018-04-19T03:35:09.134Z,49.70
2018-04-19T03:37:37.976Z,46.37
2018-04-19T03:40:06.338Z,41.83
2018-04-19T03:42:34.710Z,48.57
2018-04-19T03:45:03.065Z,40.57
2018-04-19T03:47:31.433Z,41.53
2018-04-19T03:50:00.278Z,49.10
2018-04-19T03:52:28.642Z,45.10
2018-04-19T03:54:57.034Z,41.10
2018-04-19T03:57:25.400Z,42.80
2018-04-19T03:59:53.753Z,48.07
2018-04-19T04:02:22.119Z,36.80
2018-04-19T04:04:50.886Z,52.77
2018-04-19T04:07:19.257Z,50.80
2018-04-19T04:09:47.623Z,39.57
2018-04-19T04:12:16.146Z,44.57
2018-04-19T04:14:44.571Z,45.40
2018-04-19T04:20:44.773Z,48.13
2018-04-19T04:23:44.743Z,40.77
2018-04-19T04:26:13.114Z,48.73
2018-04-19T04:28:41.491Z,45.83
2018-04-19T04:31:09.869Z,45.80
2018-04-19T04:36:16.623Z,49.47
2018-04-19T04:38:45.382Z,32.03
2018-04-19T04:41:13.734Z,40.90
2018-04-19T04:43:42.094Z,61.73
2018-04-19T04:46:10.495Z,40.13
2018-04-19T04:48:38.867Z,49.90
2018-04-19T04:51:07.223Z,41.20
2018-04-19T04:53:35.611Z,39.30
2018-04-19T04:56:03.980Z,38.83
2018-04-19T04:58:32.330Z,42.03
2018-04-19T05:01:01.170Z,28.50
2018-04-19T05:03:29.550Z,38.13
2018-04-19T05:05:57.903Z,47.53
2018-04-19T05:08:26.258Z,41.07
2018-04-19T05:10:55.036Z,30.23
2018-04-19T05:13:23.896Z,29.57
2018-04-19T05:15:52.305Z,25.90
2018-04-19T05:18:21.054Z,26.73
2018-04-19T05:20:49.475Z,27.10
2018-04-19T05:23:18.241Z,27.70
2018-04-19T05:25:46.597Z,27.80
2018-04-19T05:28:14.962Z,32.03
2018-04-19T05:30:43.326Z,31.10
2018-04-19T05:33:11.711Z,29.43
2018-04-19T05:35:40.118Z,25.90
2018-04-19T05:38:08.466Z,26.77
2018-04-19T05:40:36.889Z,29.67
2018-04-19T05:43:05.242Z,31.00
2018-04-19T05:45:33.623Z,38.07
2018-04-19T05:48:02.012Z,27.10
2018-04-19T05:50:30.387Z,28.53
2018-04-19T05:52:58.769Z,27.40
2018-04-19T05:55:27.150Z,22.10
2018-04-19T05:57:55.535Z,22.67
2018-04-19T06:00:23.899Z,22.00
2018-04-19T06:02:52.289Z,19.40
2018-04-19T06:05:21.357Z,23.90
2018-04-19T06:07:49.728Z,17.53
2018-04-19T06:10:18.090Z,19.50
2018-04-19T06:12:46.927Z,20.77
2018-04-19T06:15:15.356Z,17.67
2018-04-19T06:17:43.726Z,18.10
2018-04-19T06:20:12.575Z,16.63
2018-04-19T06:22:40.950Z,13.63
2018-04-19T06:25:09.316Z,15.57
2018-04-19T06:27:38.614Z,19.93
2018-04-19T06:30:06.988Z,12.83
2018-04-19T06:32:35.859Z,11.27
2018-04-19T06:35:04.606Z,17.07
2018-04-19T06:37:32.971Z,14.30
2018-04-19T06:40:01.368Z,15.70
2018-04-19T06:42:29.822Z,15.87
2018-04-19T06:44:58.238Z,13.00
2018-04-19T06:47:26.687Z,16.43
2018-04-19T06:49:55.195Z,12.60
2018-04-19T06:52:23.703Z,16.53
2018-04-19T06:54:52.534Z,19.03
2018-04-19T06:57:20.902Z,14.40
2018-04-19T06:59:49.254Z,20.27
2018-04-19T07:02:18.021Z,16.07
2018-04-19T07:04:46.379Z,12.23
2018-04-19T07:07:14.742Z,17.43
2018-04-19T07:09:43.090Z,14.10
2018-04-19T07:12:11.461Z,15.00
2018-04-19T07:14:39.872Z,10.90
2018-04-19T07:17:08.662Z,15.13
2018-04-19T07:19:37.054Z,20.97
2018-04-19T07:22:05.424Z,15.10
2018-04-19T07:24:33.778Z,15.30
2018-04-19T07:27:02.187Z,12.93
2018-04-19T07:29:30.563Z,13.33
2018-04-19T07:31:58.940Z,15.90
2018-04-19T07:34:27.298Z,14.30
2018-04-19T07:36:55.690Z,13.50
2018-04-19T07:39:24.071Z,14.57
2018-04-19T07:41:52.465Z,9.23
2018-04-19T07:44:20.827Z,17.57
2018-04-19T07:46:49.211Z,9.83
2018-04-19T07:49:17.635Z,10.57
2018-04-19T07:51:46.549Z,12.10
2018-04-19T07:54:14.986Z,14.23
2018-04-19T07:56:43.510Z,10.27
2018-04-19T07:59:11.947Z,16.73
2018-04-19T08:01:40.418Z,15.83
2018-04-19T08:04:08.867Z,10.00
2018-04-19T08:06:37.335Z,12.70
2018-04-19T08:09:08.331Z,11.97
2018-04-19T08:11:36.863Z,6.30
2018-04-19T08:14:05.299Z,11.90
2018-04-19T08:16:34.143Z,8.80
2018-04-19T08:19:02.886Z,6.27
2018-04-19T08:21:31.407Z,7.57
2018-04-19T08:23:59.830Z,12.17
2018-04-19T08:26:28.371Z,7.27
2018-04-19T08:28:56.845Z,10.20
2018-04-19T08:31:25.347Z,8.00
2018-04-19T08:33:53.805Z,4.47
2018-04-19T08:36:22.291Z,10.30
2018-04-19T08:38:50.727Z,6.27
2018-04-19T08:41:19.210Z,12.47
2018-04-19T08:43:47.669Z,8.77
2018-04-19T08:46:16.631Z,7.80
2018-04-19T08:48:45.118Z,6.80
2018-04-19T08:51:13.586Z,4.80
2018-04-19T08:53:42.060Z,7.90
2018-04-19T08:56:10.515Z,4.40
2018-04-19T08:58:38.998Z,6.33
2018-04-19T09:01:07.536Z,5.40
2018-04-19T09:03:36.025Z,7.57
2018-04-19T09:06:04.490Z,4.63
2018-04-19T09:08:32.957Z,9.30
2018-04-19T09:11:01.441Z,12.00
2018-04-19T09:13:29.935Z,8.23
2018-04-19T09:15:58.406Z,4.93
2018-04-19T09:18:26.867Z,4.10
2018-04-19T09:20:55.367Z,5.80
2018-04-19T09:23:23.845Z,6.53
2018-04-19T09:25:52.330Z,16.23
2018-04-19T09:28:20.790Z,7.73
2018-04-19T09:30:49.283Z,11.10
2018-04-19T09:33:17.744Z,5.70
2018-04-19T09:38:20.942Z,4.77
2018-04-19T09:40:49.417Z,6.60
2018-04-19T09:43:17.883Z,5.20
2018-04-19T09:45:46.741Z,4.20
2018-04-19T09:48:15.341Z,4.10
2018-04-19T09:50:44.207Z,5.13
2018-04-19T09:53:12.667Z,4.73
2018-04-19T09:55:41.270Z,5.97
2018-04-19T09:58:09.753Z,7.20
2018-04-19T10:00:43.857Z,8.83
2018-04-19T10:03:20.365Z,5.03
2018-04-19T10:05:48.841Z,5.80
2018-04-19T10:08:17.298Z,6.00
2018-04-19T10:10:45.780Z,5.53
2018-04-19T10:13:14.266Z,17.63
2018-04-19T10:15:42.739Z,4.77
2018-04-19T10:18:11.194Z,5.07
2018-04-19T10:20:39.702Z,9.37
2018-04-19T10:23:08.194Z,7.60
2018-04-19T10:25:36.658Z,5.67
2018-04-19T10:28:05.151Z,4.80
2018-04-19T10:30:33.642Z,9.27
2018-04-19T10:33:02.133Z,13.60
2018-04-19T10:35:30.696Z,5.47
2018-04-19T10:37:59.155Z,7.50
2018-04-19T10:40:27.650Z,9.40
2018-04-19T10:42:56.127Z,8.67
2018-04-19T10:45:24.570Z,8.80
2018-04-19T10:47:53.014Z,13.40
2018-04-19T10:50:21.463Z,7.33
2018-04-19T10:52:49.981Z,12.07
2018-04-19T10:55:18.414Z,8.50
2018-04-19T10:57:47.253Z,8.03
2018-04-19T11:00:15.719Z,9.63
2018-04-19T11:02:44.198Z,12.43
2018-04-19T11:05:12.638Z,10.57
2018-04-19T11:07:41.483Z,9.97
2018-04-19T11:10:09.917Z,9.57
2018-04-19T11:12:38.445Z,7.63
2018-04-19T11:15:06.903Z,15.23
2018-04-19T11:17:35.340Z,18.20
2018-04-19T11:20:04.210Z,10.77
2018-04-19T11:22:32.669Z,13.30
2018-04-19T11:25:01.132Z,11.83
2018-04-19T11:27:29.584Z,17.73
2018-04-19T11:29:58.426Z,16.63
2018-04-19T11:32:26.900Z,16.60
2018-04-19T11:34:55.338Z,11.07
2018-04-19T11:37:24.184Z,21.50
2018-04-19T11:39:52.644Z,10.80
2018-04-19T11:42:21.143Z,18.23
2018-04-19T11:44:49.611Z,22.40
2018-04-19T11:47:18.079Z,16.73
2018-04-19T11:49:46.583Z,8.97
2018-04-19T11:52:15.041Z,16.73
2018-04-19T11:54:43.507Z,16.43
2018-04-19T11:57:11.972Z,12.70
2018-04-19T11:59:40.883Z,12.57
2018-04-19T12:02:09.343Z,15.43
2018-04-19T12:04:38.190Z,16.37
2018-04-19T12:07:06.656Z,13.63
2018-04-19T12:09:35.102Z,20.10
2018-04-19T12:12:03.944Z,20.80
2018-04-19T12:14:32.382Z,17.80
2018-04-19T12:17:00.822Z,17.73
2018-04-19T12:19:29.260Z,23.87
2018-04-19T12:21:57.701Z,15.33
2018-04-19T12:24:26.535Z,13.30
2018-04-19T12:26:54.990Z,14.63
2018-04-19T12:29:23.434Z,20.23
2018-04-19T12:31:51.896Z,11.23
2018-04-19T12:34:20.853Z,17.20
2018-04-19T12:36:49.287Z,11.47
2018-04-19T12:39:17.756Z,13.40
2018-04-19T12:41:46.190Z,27.87
2018-04-19T12:44:14.632Z,14.73
2018-04-19T12:46:43.474Z,9.33
2018-04-19T12:49:11.962Z,13.93
2018-04-19T12:51:40.440Z,22.10
2018-04-19T12:54:08.875Z,12.87
2018-04-19T12:56:37.813Z,20.60
2018-04-19T12:59:06.290Z,8.93
2018-04-19T13:01:34.779Z,10.37
2018-04-19T13:04:03.250Z,8.17
2018-04-19T13:06:31.750Z,9.20
2018-04-19T13:09:00.214Z,32.27
2018-04-19T13:11:28.675Z,22.33
2018-04-19T13:13:58.152Z,15.10
2018-04-19T13:16:26.605Z,11.40
2018-04-19T13:18:55.038Z,15.17
2018-04-19T13:21:23.563Z,16.23
2018-04-19T13:23:52.024Z,10.90
2018-04-19T13:26:20.519Z,17.70
2018-04-19T13:28:49.007Z,10.63
2018-04-19T13:31:18.971Z,9.80
2018-04-19T13:33:47.801Z,17.50
2018-04-19T13:36:16.252Z,8.70
2018-04-19T13:38:44.687Z,14.60
2018-04-19T13:41:13.143Z,11.90
2018-04-19T13:43:41.624Z,12.60
2018-04-19T13:46:10.074Z,14.37
2018-04-19T13:48:38.640Z,9.20
2018-04-19T13:51:07.495Z,10.53
2018-04-19T13:53:35.939Z,6.23
2018-04-19T13:56:04.455Z,5.57
2018-04-19T13:58:32.920Z,6.20
2018-04-19T14:01:01.388Z,10.20
2018-04-19T14:03:29.881Z,6.43
2018-04-19T14:05:58.367Z,9.23
2018-04-19T14:08:26.849Z,2.93
2018-04-19T14:10:55.331Z,5.40
2018-04-19T14:13:23.801Z,9.60
2018-04-19T14:15:52.275Z,10.13
2018-04-19T14:18:20.752Z,13.13
2018-04-19T14:20:49.222Z,11.20
2018-04-19T14:23:18.055Z,5.10
2018-04-19T14:25:46.521Z,7.43
2018-04-19T14:28:14.962Z,3.87
2018-04-19T14:30:43.806Z,7.37
2018-04-19T14:33:12.238Z,7.77
2018-04-19T14:35:41.089Z,8.73
2018-04-19T14:38:09.547Z,10.93
2018-04-19T14:40:38.023Z,6.43
2018-04-19T14:43:06.471Z,3.67
2018-04-19T14:45:35.319Z,15.93
2018-04-19T14:48:03.765Z,5.83
2018-04-19T14:50:32.205Z,5.83
2018-04-19T14:53:01.037Z,6.10
2018-04-19T14:55:29.511Z,3.90
2018-04-19T14:57:57.985Z,7.07
2018-04-19T15:00:26.430Z,15.73
2018-04-19T15:02:54.964Z,3.73
2018-04-19T15:05:23.416Z,5.57
2018-04-19T15:07:51.923Z,7.83
2018-04-19T15:10:20.379Z,6.47
2018-04-19T15:12:49.363Z,4.50
2018-04-19T15:15:18.298Z,12.10
2018-04-19T15:17:46.743Z,5.97
2018-04-19T15:20:16.582Z,6.10
2018-04-19T15:22:45.015Z,5.77
2018-04-19T15:25:13.975Z,12.20
2018-04-19T15:27:42.414Z,6.20
2018-04-19T15:30:10.859Z,7.83
2018-04-19T15:32:39.315Z,14.23
2018-04-19T15:35:07.758Z,4.10
2018-04-19T15:37:36.191Z,13.93
2018-04-19T15:40:04.646Z,14.37
2018-04-19T15:42:33.108Z,3.83
2018-04-19T15:45:01.547Z,8.60
2018-04-19T15:47:29.990Z,6.90
2018-04-19T15:49:58.489Z,11.60
2018-04-19T15:52:26.948Z,7.20
2018-04-19T15:54:55.388Z,7.10
2018-04-19T15:57:24.314Z,6.40
2018-04-19T15:59:52.822Z,12.73
2018-04-19T16:02:21.270Z,6.80
2018-04-19T16:04:49.765Z,8.80
2018-04-19T16:07:18.240Z,4.97
2018-04-19T16:09:46.714Z,11.70
2018-04-19T16:12:15.151Z,13.70
2018-04-19T16:14:43.682Z,7.87
2018-04-19T16:17:12.181Z,13.43
2018-04-19T16:19:40.607Z,14.00
2018-04-19T16:22:09.537Z,14.70
2018-04-19T16:24:38.014Z,6.43
2018-04-19T16:27:06.454Z,11.30
2018-04-19T16:29:35.309Z,7.97
2018-04-19T16:32:03.759Z,3.87
2018-04-19T16:34:32.383Z,8.63
2018-04-19T16:37:00.833Z,16.57
2018-04-19T16:39:29.322Z,10.20
2018-04-19T16:41:57.768Z,5.37
2018-04-19T16:44:26.207Z,7.00
2018-04-19T16:46:54.656Z,17.23
2018-04-19T16:49:23.123Z,5.07
2018-04-19T16:51:51.562Z,10.93
2018-04-19T16:54:20.201Z,6.70
2018-04-19T16:56:48.647Z,7.93
2018-04-19T16:59:17.476Z,6.43
2018-04-19T17:01:45.939Z,8.70
2018-04-19T17:04:14.523Z,7.83
2018-04-19T17:06:42.976Z,12.13
2018-04-19T17:09:11.803Z,6.63
2018-04-19T17:11:40.291Z,13.23
2018-04-19T17:14:08.762Z,8.90
2018-04-19T17:16:37.255Z,9.47
2018-04-19T17:19:05.727Z,12.63
2018-04-19T17:21:34.184Z,10.63
2018-04-19T17:24:03.035Z,7.00
2018-04-19T17:26:31.485Z,7.60
2018-04-19T17:28:59.931Z,6.60
2018-04-19T17:31:28.758Z,11.53
2018-04-19T17:33:57.230Z,17.10
2018-04-19T17:36:25.659Z,7.83
2018-04-19T17:38:54.199Z,7.73
2018-04-19T17:41:22.678Z,11.33
2018-04-19T17:43:51.160Z,10.87
2018-04-19T17:46:19.614Z,9.20
2018-04-19T17:48:48.063Z,11.30
2018-04-19T17:51:16.616Z,8.80
2018-04-19T17:53:45.100Z,16.57
2018-04-19T17:56:13.751Z,8.20
2018-04-19T17:58:42.192Z,7.40
2018-04-19T18:01:10.643Z,8.43
2018-04-19T18:03:39.134Z,6.27
2018-04-19T18:06:07.587Z,12.50
2018-04-19T18:08:36.070Z,14.03
2018-04-19T18:11:04.531Z,16.23
2018-04-19T18:13:32.971Z,10.90
2018-04-19T18:16:01.432Z,14.30
2018-04-19T18:18:29.911Z,12.80
2018-04-19T18:20:58.350Z,10.27
2018-04-19T18:23:27.196Z,20.17
2018-04-19T18:25:55.658Z,11.50
2018-04-19T18:28:24.133Z,10.40
2018-04-19T18:30:52.616Z,6.80
2018-04-19T18:33:21.102Z,17.97
2018-04-19T18:35:49.581Z,13.90
2018-04-19T18:38:18.040Z,12.43
2018-04-19T18:40:46.488Z,13.80
2018-04-19T18:43:14.960Z,12.27
2018-04-19T18:45:44.296Z,9.70
2018-04-19T18:48:12.975Z,9.37
2018-04-19T18:50:41.460Z,9.53
2018-04-19T18:53:09.961Z,8.73
2018-04-19T18:55:38.483Z,14.70
2018-04-19T18:58:06.966Z,7.53
2018-04-19T19:00:35.407Z,13.87
2018-04-19T19:03:03.874Z,12.20
2018-04-19T19:05:32.426Z,9.73
2018-04-19T19:08:00.867Z,7.70
2018-04-19T19:10:29.304Z,9.27
2018-04-19T19:12:58.156Z,9.50
2018-04-19T19:19:14.651Z,9.57
2018-04-19T19:21:43.131Z,9.40
2018-04-19T19:24:11.616Z,10.27
2018-04-19T19:26:40.061Z,7.33
2018-04-19T19:29:08.910Z,9.93
2018-04-19T19:31:37.361Z,12.43
2018-04-19T19:34:05.799Z,12.13
2018-04-19T19:36:34.328Z,7.40
2018-04-19T19:39:02.811Z,18.70
2018-04-19T19:41:31.262Z,8.63
2018-04-19T19:44:00.179Z,12.60
2018-04-19T19:46:28.624Z,8.47
2018-04-19T19:48:58.414Z,11.50
2018-04-19T19:51:26.855Z,9.90
2018-04-19T19:53:55.296Z,11.30
2018-04-19T19:56:24.140Z,7.40
2018-04-19T19:58:52.583Z,8.20
2018-04-19T20:01:21.025Z,14.70
2018-04-19T20:03:49.473Z,7.10
2018-04-19T20:06:17.929Z,12.03
2018-04-19T20:08:46.426Z,14.43
2018-04-19T20:11:14.896Z,9.57
2018-04-19T20:13:43.331Z,6.60
2018-04-19T20:16:11.772Z,12.90
2018-04-19T20:18:40.231Z,5.27
2018-04-19T20:21:08.671Z,10.40
2018-04-19T20:23:37.111Z,8.60
2018-04-19T20:26:05.549Z,5.03
2018-04-19T20:28:34.386Z,9.67
2018-04-19T20:31:02.830Z,16.90
2018-04-19T20:33:31.695Z,10.57
2018-04-19T20:36:00.167Z,14.00
2018-04-19T20:38:28.617Z,6.90
2018-04-19T20:40:57.119Z,15.80
2018-04-19T20:43:25.578Z,11.73
2018-04-19T20:45:54.044Z,10.13
2018-04-19T20:48:22.483Z,7.07
2018-04-19T20:50:50.931Z,5.70
2018-04-19T20:53:19.426Z,10.63
2018-04-19T20:55:47.890Z,18.00
2018-04-19T20:58:16.337Z,14.03
2018-04-19T21:00:44.782Z,9.00
2018-04-19T21:03:13.226Z,9.13
2018-04-19T21:05:41.662Z,8.80
2018-04-19T21:08:10.499Z,10.73
2018-04-19T21:10:38.943Z,12.10
2018-04-19T21:13:07.774Z,7.43
2018-04-19T21:15:36.220Z,17.20
2018-04-19T21:18:04.673Z,16.43
2018-04-19T21:20:33.127Z,14.67
2018-04-19T21:23:01.564Z,9.00
2018-04-19T21:25:30.016Z,14.60
2018-04-19T21:27:58.857Z,16.53
2018-04-19T21:30:27.307Z,10.00
2018-04-19T21:32:56.220Z,14.37
2018-04-19T21:35:24.703Z,10.00
2018-04-19T21:37:53.154Z,8.93
2018-04-19T21:40:21.992Z,13.40
2018-04-19T21:42:50.434Z,12.53
2018-04-19T21:45:18.891Z,17.40
2018-04-19T21:47:47.728Z,17.70
2018-04-19T21:50:16.170Z,13.20
2018-04-19T21:52:45.011Z,13.17
2018-04-19T21:55:13.464Z,10.23
2018-04-19T21:57:41.916Z,11.87
2018-04-19T22:00:10.359Z,15.37
2018-04-19T22:02:38.807Z,18.20
2018-04-19T22:05:07.314Z,9.10
2018-04-19T22:07:35.778Z,6.70
2018-04-19T22:10:04.229Z,7.13
2018-04-19T22:12:33.083Z,11.37
2018-04-19T22:15:01.519Z,7.20
2018-04-19T22:17:29.962Z,20.87
2018-04-19T22:19:58.408Z,14.33
2018-04-19T22:22:26.867Z,14.70
2018-04-19T22:24:55.303Z,16.20
2018-04-19T22:27:23.756Z,19.83
2018-04-19T22:29:52.189Z,9.27
2018-04-19T22:32:20.650Z,17.20
2018-04-19T22:34:49.475Z,8.93
2018-04-19T22:37:17.916Z,9.23
2018-04-19T22:39:46.353Z,18.67
2018-04-19T22:42:14.807Z,14.20
2018-04-19T22:44:43.249Z,14.63
2018-04-19T22:47:11.702Z,9.13
2018-04-19T22:49:40.139Z,17.47
2018-04-19T22:52:08.992Z,12.80
2018-04-19T22:54:37.427Z,25.73
2018-04-19T22:57:05.867Z,14.60
2018-04-19T22:59:34.306Z,13.97
2018-04-19T23:02:02.757Z,13.93
2018-04-19T23:04:31.195Z,14.47
2018-04-19T23:06:59.650Z,17.20
2018-04-19T23:09:28.130Z,12.17
2018-04-19T23:11:56.571Z,20.23
2018-04-19T23:14:25.422Z,15.70
2018-04-19T23:16:53.871Z,15.83
2018-04-19T23:19:22.363Z,19.10
2018-04-19T23:21:50.810Z,15.87
2018-04-19T23:24:19.324Z,12.37
2018-04-19T23:26:47.797Z,19.80
2018-04-19T23:29:16.234Z,25.67
2018-04-19T23:31:45.179Z,14.87
2018-04-19T23:34:13.663Z,17.20
2018-04-19T23:36:42.118Z,16.53
2018-04-19T23:39:10.567Z,20.00
2018-04-19T23:41:39.503Z,12.23
2018-04-19T23:44:07.951Z,19.47
2018-04-19T23:46:36.875Z,25.33
2018-04-19T23:49:05.349Z,17.93
2018-04-19T23:51:33.796Z,15.43
2018-04-19T23:54:02.655Z,15.07
2018-04-19T23:56:31.117Z,35.40
2018-04-19T23:58:59.588Z,16.57
